createdAt,value
2022-08-25T00:01:58.779Z,99.90
2022-08-25T00:04:27.735Z,99.90
2022-08-25T00:06:59.445Z,99.90
2022-08-25T00:09:28.027Z,99.90
2022-08-25T00:12:01.719Z,99.90
2022-08-25T00:14:31.430Z,99.90
2022-08-25T00:16:59.579Z,99.90
2022-08-25T00:19:30.386Z,99.90
2022-08-25T00:21:57.613Z,99.90
2022-08-25T00:24:25.403Z,99.90
2022-08-25T00:26:57.386Z,99.90
2022-08-25T00:29:27.177Z,99.90
2022-08-25T00:31:57.351Z,99.90
2022-08-25T00:34:29.016Z,99.90
2022-08-25T00:36:55.880Z,99.90
2022-08-25T00:39:24.106Z,99.90
2022-08-25T00:41:54.289Z,99.90
2022-08-25T00:44:21.362Z,99.90
2022-08-25T00:46:50.654Z,99.90
2022-08-25T00:49:25.276Z,99.90
2022-08-25T00:51:58.614Z,99.90
2022-08-25T00:54:30.282Z,99.90
2022-08-25T00:56:59.658Z,99.90
2022-08-25T00:59:28.209Z,99.90
2022-08-25T01:01:56.398Z,99.90
2022-08-25T01:04:23.264Z,99.90
2022-08-25T01:06:50.811Z,99.90
2022-08-25T01:09:19.958Z,99.90
2022-08-25T01:11:47.574Z,99.90
2022-08-25T01:14:18.599Z,99.90
2022-08-25T01:16:46.086Z,99.90
2022-08-25T01:19:18.432Z,99.90
2022-08-25T01:21:50.444Z,99.90
2022-08-25T01:24:37.086Z,99.90
2022-08-25T01:27:05.262Z,99.90
2022-08-25T01:29:33.003Z,99.90
2022-08-25T01:32:03.385Z,99.90
2022-08-25T01:34:33.551Z,99.90
2022-08-25T01:37:05.782Z,99.90
2022-08-25T01:39:34.303Z,99.90
2022-08-25T01:42:18.162Z,99.90
2022-08-25T01:44:47.763Z,99.90
2022-08-25T01:47:14.860Z,99.90
2022-08-25T01:49:41.855Z,99.90
2022-08-25T01:52:15.739Z,99.90
2022-08-25T01:54:42.641Z,99.90
2022-08-25T01:57:10.202Z,99.90
2022-08-25T01:59:37.056Z,99.90
2022-08-25T02:02:04.946Z,99.90
2022-08-25T02:04:33.151Z,99.90
2022-08-25T02:07:01.573Z,99.90
2022-08-25T02:09:29.994Z,99.90
2022-08-25T02:11:57.882Z,99.90
2022-08-25T02:14:24.842Z,99.90
2022-08-25T02:16:53.553Z,99.90
2022-08-25T02:19:23.071Z,99.90
2022-08-25T02:21:50.292Z,99.90
2022-08-25T02:24:19.928Z,99.90
2022-08-25T02:26:49.144Z,99.90
2022-08-25T02:29:21.770Z,99.90
2022-08-25T02:31:49.216Z,99.90
2022-08-25T02:34:18.904Z,99.90
2022-08-25T02:36:51.623Z,99.90
2022-08-25T02:39:18.424Z,99.90
2022-08-25T02:41:45.211Z,99.90
2022-08-25T02:44:16.484Z,99.90
2022-08-25T02:46:43.240Z,99.90
2022-08-25T02:49:10.089Z,99.90
2022-08-25T02:51:37.494Z,99.90
2022-08-25T02:54:05.672Z,99.90
2022-08-25T02:56:33.324Z,99.90
2022-08-25T02:59:03.601Z,99.90
2022-08-25T03:01:32.527Z,99.90
2022-08-25T03:04:00.607Z,99.90
2022-08-25T03:06:28.596Z,99.90
2022-08-25T03:08:55.887Z,99.90
2022-08-25T03:11:22.755Z,99.90
2022-08-25T03:13:50.500Z,99.90
2022-08-25T03:16:18.491Z,99.90
2022-08-25T03:18:47.269Z,99.90
2022-08-25T03:21:15.942Z,99.90
2022-08-25T03:23:44.243Z,99.90
2022-08-25T03:26:11.099Z,99.90
2022-08-25T03:28:38.535Z,99.90
2022-08-25T03:31:06.793Z,99.90
2022-08-25T03:33:33.702Z,99.90
2022-08-25T03:36:02.932Z,99.90
2022-08-25T03:38:29.799Z,99.90
2022-08-25T03:40:56.657Z,99.90
2022-08-25T03:43:24.034Z,99.90
2022-08-25T03:45:50.869Z,99.90
2022-08-25T03:48:17.854Z,99.90
2022-08-25T03:50:50.337Z,99.90
2022-08-25T03:53:19.659Z,99.90
2022-08-25T03:55:47.470Z,99.90
2022-08-25T03:58:17.035Z,99.90
2022-08-25T04:00:46.045Z,99.90
2022-08-25T04:03:14.967Z,99.90
2022-08-25T04:05:41.835Z,99.90
2022-08-25T04:08:08.746Z,99.90
2022-08-25T04:10:38.234Z,99.90
2022-08-25T04:13:05.770Z,99.90
2022-08-25T04:15:34.568Z,99.90
2022-08-25T04:18:02.040Z,99.90
2022-08-25T04:20:28.923Z,99.90
2022-08-25T04:22:55.693Z,99.90
2022-08-25T04:25:23.095Z,99.90
2022-08-25T04:27:51.800Z,99.90
2022-08-25T04:30:18.743Z,99.90
2022-08-25T04:32:47.273Z,99.90
2022-08-25T04:35:14.734Z,99.90
2022-08-25T04:37:41.565Z,99.90
2022-08-25T04:40:09.715Z,99.90
2022-08-25T04:42:37.013Z,99.90
2022-08-25T04:45:06.971Z,99.90
2022-08-25T04:47:36.988Z,99.90
2022-08-25T04:50:05.550Z,99.90
2022-08-25T04:52:35.489Z,99.90
2022-08-25T04:55:02.317Z,99.90
2022-08-25T04:57:29.829Z,99.90
2022-08-25T04:59:56.651Z,99.90
2022-08-25T05:02:25.196Z,99.90
2022-08-25T05:04:54.458Z,99.90
2022-08-25T05:07:21.101Z,99.90
2022-08-25T05:09:50.330Z,99.90
2022-08-25T05:12:17.710Z,99.90
2022-08-25T05:14:44.662Z,99.90
2022-08-25T05:17:11.445Z,99.90
2022-08-25T05:19:46.392Z,99.90
2022-08-25T05:22:13.168Z,99.90
2022-08-25T05:24:40.584Z,99.90
2022-08-25T05:27:07.350Z,99.90
2022-08-25T05:29:34.193Z,99.90
2022-08-25T05:32:01.623Z,99.90
2022-08-25T05:34:28.479Z,99.90
2022-08-25T05:36:56.615Z,99.90
2022-08-25T05:39:23.900Z,99.90
2022-08-25T05:41:53.722Z,99.90
2022-08-25T05:44:21.522Z,99.90
2022-08-25T05:46:49.549Z,99.90
2022-08-25T05:49:16.347Z,99.90
2022-08-25T05:51:43.120Z,99.90
2022-08-25T05:54:11.836Z,99.90
2022-08-25T05:56:39.634Z,99.90
2022-08-25T05:59:09.432Z,99.90
2022-08-25T06:01:37.448Z,99.90
2022-08-25T06:04:04.567Z,99.90
2022-08-25T06:06:31.553Z,99.90
2022-08-25T06:08:58.913Z,99.90
2022-08-25T06:11:29.739Z,99.90
2022-08-25T06:13:58.522Z,99.90
2022-08-25T06:16:25.950Z,99.90
2022-08-25T06:18:52.955Z,99.90
2022-08-25T06:21:19.790Z,99.90
2022-08-25T06:23:47.166Z,99.90
2022-08-25T06:26:21.315Z,99.90
2022-08-25T06:28:50.897Z,99.90
2022-08-25T06:31:18.498Z,99.90
2022-08-25T06:33:45.318Z,99.90
2022-08-25T06:36:12.867Z,99.90
2022-08-25T06:38:39.624Z,99.90
2022-08-25T06:41:08.027Z,99.20
2022-08-25T06:43:37.104Z,99.30
2022-08-25T06:46:12.675Z,99.10
2022-08-25T06:48:40.860Z,98.90
2022-08-25T06:51:10.223Z,98.70
2022-08-25T06:53:44.142Z,97.90
2022-08-25T06:56:11.575Z,97.90
2022-08-25T06:58:39.485Z,97.30
2022-08-25T07:01:14.922Z,97.60
2022-08-25T07:03:43.080Z,97.40
2022-08-25T07:06:10.557Z,96.70
2022-08-25T07:08:37.911Z,96.80
2022-08-25T07:11:12.850Z,96.80
2022-08-25T07:13:44.918Z,96.50
2022-08-25T07:16:14.238Z,96.40
2022-08-25T07:18:41.128Z,96.20
2022-08-25T07:21:09.255Z,96.00
2022-08-25T07:23:36.226Z,95.60
2022-08-25T07:26:33.655Z,95.50
2022-08-25T07:28:58.478Z,94.30
2022-08-25T07:31:29.726Z,94.60
2022-08-25T07:33:59.927Z,94.70
2022-08-25T07:36:26.832Z,94.60
2022-08-25T07:38:58.007Z,94.30
2022-08-25T07:41:26.367Z,94.10
2022-08-25T07:43:53.126Z,93.60
2022-08-25T07:46:21.033Z,93.30
2022-08-25T07:48:53.222Z,93.10
2022-08-25T07:51:20.437Z,93.40
2022-08-25T07:53:49.438Z,93.60
2022-08-25T07:56:17.755Z,94.20
2022-08-25T07:58:45.004Z,94.10
2022-08-25T08:01:14.639Z,94.10
2022-08-25T08:03:50.314Z,93.90
2022-08-25T08:06:21.959Z,93.60
2022-08-25T08:08:50.632Z,93.20
2022-08-25T08:11:26.272Z,92.60
2022-08-25T08:13:57.440Z,92.80
2022-08-25T08:16:27.693Z,92.80
2022-08-25T08:18:56.209Z,92.80
2022-08-25T08:21:35.030Z,92.70
2022-08-25T08:24:10.700Z,92.50
2022-08-25T08:26:57.574Z,92.90
2022-08-25T08:29:26.430Z,93.00
2022-08-25T08:31:53.276Z,93.20
2022-08-25T08:34:20.158Z,92.80
2022-08-25T08:36:53.740Z,93.00
2022-08-25T08:39:21.359Z,93.30
2022-08-25T08:42:12.137Z,93.30
2022-08-25T08:44:49.250Z,93.60
2022-08-25T08:47:27.694Z,93.40
2022-08-25T08:50:02.427Z,93.80
2022-08-25T08:52:41.231Z,93.00
2022-08-25T08:55:16.009Z,93.30
2022-08-25T09:00:19.920Z,92.80
2022-08-25T09:02:51.565Z,93.30
2022-08-25T09:05:24.072Z,92.90
2022-08-25T09:07:56.379Z,92.60
2022-08-25T09:10:34.585Z,92.70
2022-08-25T09:13:12.306Z,92.40
2022-08-25T09:15:50.717Z,92.50
2022-08-25T09:18:28.637Z,91.90
2022-08-25T09:21:07.418Z,92.20
2022-08-25T09:23:48.182Z,91.60
2022-08-25T09:26:28.116Z,91.90
2022-08-25T09:29:02.174Z,92.20
2022-08-25T09:31:36.075Z,92.50
2022-08-25T09:34:06.500Z,92.10
2022-08-25T09:36:37.879Z,92.10
2022-08-25T09:39:06.740Z,91.70
2022-08-25T09:41:43.833Z,91.20
2022-08-25T09:44:21.331Z,91.90
2022-08-25T09:46:58.257Z,91.50
2022-08-25T09:49:32.743Z,91.10
2022-08-25T09:52:30.462Z,90.60
2022-08-25T09:55:00.676Z,90.90
2022-08-25T09:57:34.113Z,91.20
2022-08-25T10:00:15.864Z,90.80
2022-08-25T10:02:44.419Z,90.40
2022-08-25T10:05:20.598Z,90.50
2022-08-25T10:07:54.733Z,89.20
2022-08-25T10:10:32.483Z,87.50
2022-08-25T10:13:01.252Z,87.10
2022-08-25T10:15:31.259Z,86.80
2022-08-25T10:18:24.006Z,86.40
2022-08-25T10:21:09.824Z,85.80
2022-08-25T10:23:40.170Z,87.10
2022-08-25T10:26:19.648Z,86.30
2022-08-25T10:28:57.967Z,85.60
2022-08-25T10:31:34.841Z,85.20
2022-08-25T10:34:17.549Z,83.50
2022-08-25T10:36:56.182Z,82.20
2022-08-25T10:39:36.885Z,81.70
2022-08-25T10:42:25.905Z,81.50
2022-08-25T10:45:08.132Z,80.60
2022-08-25T10:47:50.931Z,80.40
2022-08-25T10:50:30.259Z,79.50
2022-08-25T10:53:27.541Z,79.50
2022-08-25T10:56:08.926Z,77.90
2022-08-25T10:58:58.960Z,77.90
2022-08-25T11:01:43.679Z,78.70
2022-08-25T11:04:17.006Z,77.10
2022-08-25T11:06:54.798Z,77.10
2022-08-25T11:09:28.717Z,75.60
2022-08-25T11:11:59.170Z,75.80
2022-08-25T11:14:34.698Z,75.50
2022-08-25T11:17:06.145Z,74.60
2022-08-25T11:19:39.212Z,74.40
2022-08-25T11:22:14.754Z,72.80
2022-08-25T11:24:52.762Z,72.10
2022-08-25T11:27:25.394Z,71.60
2022-08-25T11:30:03.402Z,72.00
2022-08-25T11:32:33.396Z,72.00
2022-08-25T11:35:01.197Z,70.50
2022-08-25T11:37:30.562Z,70.40
2022-08-25T11:40:14.829Z,71.00
2022-08-25T11:42:59.023Z,69.80
2022-08-25T11:45:48.070Z,69.30
2022-08-25T11:48:35.245Z,69.80
2022-08-25T11:51:05.033Z,70.10
2022-08-25T11:53:34.512Z,67.90
2022-08-25T11:56:03.745Z,68.70
2022-08-25T11:58:43.256Z,68.50
2022-08-25T12:02:05.703Z,68.10
2022-08-25T12:04:44.157Z,67.30
2022-08-25T12:07:24.525Z,67.00
2022-08-25T12:10:12.102Z,67.60
2022-08-25T12:13:04.629Z,66.30
2022-08-25T12:15:57.602Z,66.30
2022-08-25T12:19:14.656Z,66.50
2022-08-25T12:21:43.398Z,65.50
2022-08-25T12:24:36.619Z,66.40
2022-08-25T12:27:06.527Z,66.60
2022-08-25T12:29:41.499Z,66.40
2022-08-25T12:32:40.817Z,65.80
2022-08-25T12:35:27.192Z,65.30
2022-08-25T12:38:05.492Z,65.30
2022-08-25T12:40:36.863Z,64.40
2022-08-25T12:43:08.907Z,65.00
2022-08-25T12:45:40.010Z,64.60
2022-08-25T12:48:45.075Z,64.40
2022-08-25T12:51:17.510Z,63.40
2022-08-25T12:53:49.957Z,63.90
2022-08-25T12:56:25.097Z,63.70
2022-08-25T12:59:01.431Z,63.20
2022-08-25T13:01:38.822Z,63.60
2022-08-25T13:04:31.678Z,63.50
2022-08-25T13:07:11.337Z,62.70
2022-08-25T13:10:17.932Z,62.60
2022-08-25T13:12:49.786Z,63.30
2022-08-25T13:15:28.957Z,63.10
2022-08-25T13:18:13.796Z,63.10
2022-08-25T13:20:44.058Z,62.40
2022-08-25T13:23:11.026Z,62.30
2022-08-25T13:25:48.242Z,61.80
2022-08-25T13:28:24.170Z,62.20
2022-08-25T13:31:05.630Z,62.30
2022-08-25T13:33:36.218Z,62.70
2022-08-25T13:36:04.480Z,62.00
2022-08-25T13:38:31.548Z,61.40
2022-08-25T13:41:09.403Z,62.00
2022-08-25T13:43:38.105Z,62.20
2022-08-25T13:46:06.289Z,62.00
2022-08-25T13:48:35.554Z,61.30
2022-08-25T13:51:16.751Z,61.10
2022-08-25T13:53:50.199Z,60.40
2022-08-25T13:56:26.870Z,60.30
2022-08-25T13:58:56.750Z,60.20
2022-08-25T14:01:48.635Z,61.00
2022-08-25T14:04:29.898Z,60.60
2022-08-25T14:07:13.919Z,59.90
2022-08-25T14:09:47.990Z,60.70
2022-08-25T14:12:29.863Z,60.50
2022-08-25T14:14:59.171Z,60.70
2022-08-25T14:17:39.225Z,60.20
2022-08-25T14:20:17.590Z,60.00
2022-08-25T14:22:44.419Z,60.20
2022-08-25T14:25:12.940Z,59.60
2022-08-25T14:28:06.822Z,59.60
2022-08-25T14:30:35.613Z,59.40
2022-08-25T14:33:03.572Z,60.80
2022-08-25T14:35:30.347Z,60.80
2022-08-25T14:37:59.213Z,60.20
2022-08-25T14:40:28.054Z,60.50
2022-08-25T14:43:02.155Z,60.60
2022-08-25T14:45:31.295Z,60.50
2022-08-25T14:48:04.692Z,60.80
2022-08-25T14:50:41.177Z,61.00
2022-08-25T14:53:15.128Z,59.80
2022-08-25T14:55:44.900Z,60.00
2022-08-25T14:58:13.095Z,59.40
2022-08-25T15:00:48.016Z,60.80
2022-08-25T15:03:18.151Z,60.70
2022-08-25T15:05:45.031Z,60.00
2022-08-25T15:08:12.353Z,60.10
2022-08-25T15:10:40.257Z,59.60
2022-08-25T15:13:07.438Z,59.60
2022-08-25T15:15:39.263Z,58.30
2022-08-25T15:18:20.873Z,59.30
2022-08-25T15:20:50.745Z,58.60
2022-08-25T15:23:17.776Z,58.20
2022-08-25T15:25:46.335Z,58.70
2022-08-25T15:28:13.316Z,58.80
2022-08-25T15:30:46.187Z,58.70
2022-08-25T15:33:13.313Z,59.10
2022-08-25T15:35:40.751Z,59.40
2022-08-25T15:38:08.661Z,58.90
2022-08-25T15:40:35.730Z,58.50
2022-08-25T15:43:03.617Z,58.80
2022-08-25T15:45:31.637Z,58.60
2022-08-25T15:48:00.081Z,57.70
2022-08-25T15:50:26.949Z,57.10
2022-08-25T15:52:54.361Z,56.80
2022-08-25T15:55:21.419Z,56.20
2022-08-25T15:57:49.640Z,57.80
2022-08-25T16:00:18.396Z,58.00
2022-08-25T16:02:45.475Z,58.60
2022-08-25T16:05:16.245Z,59.60
2022-08-25T16:07:44.163Z,59.50
2022-08-25T16:10:12.517Z,59.70
2022-08-25T16:12:39.350Z,59.10
2022-08-25T16:15:08.053Z,58.30
2022-08-25T16:17:35.192Z,59.00
2022-08-25T16:20:03.313Z,59.10
2022-08-25T16:22:40.679Z,59.20
2022-08-25T16:25:08.429Z,59.30
2022-08-25T16:27:38.804Z,59.50
2022-08-25T16:30:08.663Z,60.10
2022-08-25T16:32:36.056Z,60.00
2022-08-25T16:35:05.616Z,59.40
2022-08-25T16:37:40.512Z,59.50
2022-08-25T16:40:10.968Z,59.60
2022-08-25T16:42:44.552Z,60.10
2022-08-25T16:45:11.620Z,59.20
2022-08-25T16:47:38.429Z,58.70
2022-08-25T16:50:12.935Z,59.60
2022-08-25T16:52:44.432Z,59.80
2022-08-25T16:55:12.623Z,60.40
2022-08-25T16:57:40.654Z,61.10
2022-08-25T17:00:08.797Z,61.70
2022-08-25T17:02:37.548Z,61.60
2022-08-25T17:05:05.721Z,62.50
2022-08-25T17:07:36.247Z,62.80
2022-08-25T17:10:06.391Z,63.40
2022-08-25T17:12:33.227Z,63.50
2022-08-25T17:15:06.766Z,63.80
2022-08-25T17:17:34.229Z,63.30
2022-08-25T17:20:01.183Z,62.90
2022-08-25T17:22:31.828Z,63.30
2022-08-25T17:25:01.185Z,63.60
2022-08-25T17:27:29.524Z,63.50
2022-08-25T17:29:57.740Z,63.50
2022-08-25T17:32:28.910Z,63.90
2022-08-25T17:34:57.473Z,63.90
2022-08-25T17:37:24.606Z,64.30
2022-08-25T17:40:02.797Z,64.60
2022-08-25T17:42:31.379Z,65.30
2022-08-25T17:44:58.780Z,68.00
2022-08-25T17:47:26.775Z,69.60
2022-08-25T17:49:54.380Z,70.40
2022-08-25T17:52:25.041Z,71.90
2022-08-25T17:54:52.458Z,72.20
2022-08-25T17:57:19.949Z,72.50
2022-08-25T17:59:49.976Z,73.30
2022-08-25T18:02:16.738Z,73.30
2022-08-25T18:04:43.962Z,75.10
2022-08-25T18:07:11.544Z,76.60
2022-08-25T18:09:38.577Z,76.90
2022-08-25T18:12:06.219Z,78.00
2022-08-25T18:14:33.663Z,78.40
2022-08-25T18:17:01.825Z,78.80
2022-08-25T18:19:28.680Z,79.10
2022-08-25T18:21:58.905Z,78.60
2022-08-25T18:24:26.103Z,79.40
2022-08-25T18:26:54.352Z,80.20
2022-08-25T18:29:21.763Z,80.80
2022-08-25T18:31:48.865Z,79.00
2022-08-25T18:34:17.188Z,79.60
2022-08-25T18:36:46.289Z,80.50
2022-08-25T18:39:13.481Z,81.00
2022-08-25T18:41:45.002Z,82.10
2022-08-25T18:44:12.937Z,83.30
2022-08-25T18:46:42.675Z,84.40
2022-08-25T18:49:09.529Z,85.30
2022-08-25T18:51:38.882Z,85.90
2022-08-25T18:54:23.537Z,86.40
2022-08-25T18:56:52.300Z,87.20
2022-08-25T18:59:19.102Z,88.40
2022-08-25T19:01:46.005Z,89.30
2022-08-25T19:04:13.443Z,90.10
2022-08-25T19:06:41.576Z,90.50
2022-08-25T19:09:11.125Z,90.90
2022-08-25T19:11:38.928Z,91.30
2022-08-25T19:14:12.041Z,91.70
2022-08-25T19:16:43.617Z,92.20
2022-08-25T19:19:12.419Z,92.90
2022-08-25T19:21:41.887Z,93.50
2022-08-25T19:24:11.007Z,94.40
2022-08-25T19:26:39.341Z,95.40
2022-08-25T19:29:09.039Z,96.20
2022-08-25T19:31:37.201Z,96.90
2022-08-25T19:34:07.516Z,98.00
2022-08-25T19:36:34.421Z,98.70
2022-08-25T19:39:04.594Z,99.30
2022-08-25T19:41:32.174Z,99.90
2022-08-25T19:44:01.184Z,99.90
2022-08-25T19:46:32.858Z,99.90
2022-08-25T19:49:06.795Z,99.90
2022-08-25T19:51:35.431Z,99.90
2022-08-25T19:54:08.954Z,99.90
2022-08-25T19:56:38.023Z,99.90
2022-08-25T19:59:11.487Z,99.90
2022-08-25T20:01:39.265Z,99.90
2022-08-25T20:04:08.762Z,99.90
2022-08-25T20:06:37.323Z,99.90
2022-08-25T20:09:06.031Z,99.90
2022-08-25T20:11:32.901Z,99.90
2022-08-25T20:14:03.685Z,99.90
2022-08-25T20:16:31.081Z,99.90
2022-08-25T20:18:57.928Z,99.90
2022-08-25T20:21:27.776Z,99.90
2022-08-25T20:23:58.854Z,99.90
2022-08-25T20:26:27.861Z,99.90
2022-08-25T20:28:54.668Z,99.90
2022-08-25T20:31:21.751Z,99.90
2022-08-25T20:33:49.206Z,99.90
2022-08-25T20:36:17.079Z,99.90
2022-08-25T20:38:45.602Z,99.90
2022-08-25T20:41:13.978Z,99.90
2022-08-25T20:43:42.351Z,99.90
2022-08-25T20:46:09.959Z,99.90
2022-08-25T20:48:37.440Z,99.90
2022-08-25T20:51:06.479Z,99.90
2022-08-25T20:53:35.357Z,99.90
2022-08-25T20:56:02.823Z,99.90
2022-08-25T20:58:29.793Z,99.90
2022-08-25T21:00:57.939Z,99.90
2022-08-25T21:03:26.372Z,99.90
2022-08-25T21:05:53.991Z,99.90
2022-08-25T21:08:20.971Z,99.90
2022-08-25T21:10:51.252Z,99.90
2022-08-25T21:13:18.052Z,99.90
2022-08-25T21:15:44.912Z,99.90
2022-08-25T21:18:14.520Z,99.90
2022-08-25T21:20:42.011Z,99.90
2022-08-25T21:23:08.803Z,99.90
2022-08-25T21:25:39.522Z,99.90
2022-08-25T21:28:06.287Z,99.90
2022-08-25T21:30:33.501Z,99.90
2022-08-25T21:33:01.098Z,99.90
2022-08-25T21:35:29.272Z,99.90
2022-08-25T21:37:56.142Z,99.90
2022-08-25T21:40:23.585Z,99.90
2022-08-25T21:42:50.938Z,99.90
2022-08-25T21:45:20.989Z,99.90
2022-08-25T21:47:49.489Z,99.90
2022-08-25T21:50:16.320Z,99.90
2022-08-25T21:52:44.560Z,99.90
2022-08-25T21:55:16.088Z,99.90
2022-08-25T21:57:43.311Z,99.90
2022-08-25T22:00:12.276Z,99.90
2022-08-25T22:02:39.747Z,99.90
2022-08-25T22:05:10.818Z,99.90
2022-08-25T22:07:40.418Z,99.90
2022-08-25T22:10:15.922Z,99.90
2022-08-25T22:12:45.000Z,99.90
2022-08-25T22:15:13.652Z,99.90
2022-08-25T22:17:40.920Z,99.90
2022-08-25T22:20:09.147Z,99.90
2022-08-25T22:22:36.442Z,99.90
2022-08-25T22:25:03.938Z,99.90
2022-08-25T22:27:33.253Z,99.90
2022-08-25T22:30:01.344Z,99.90
2022-08-25T22:32:28.707Z,99.90
2022-08-25T22:34:55.495Z,99.90
2022-08-25T22:37:22.895Z,99.90
2022-08-25T22:39:49.967Z,99.90
2022-08-25T22:42:17.119Z,99.90
2022-08-25T22:44:46.079Z,99.90
2022-08-25T22:47:12.870Z,99.90
2022-08-25T22:49:40.349Z,99.90
2022-08-25T22:52:11.441Z,99.90
2022-08-25T22:54:38.443Z,99.90
2022-08-25T22:57:06.926Z,99.90
2022-08-25T22:59:34.483Z,99.90
2022-08-25T23:02:02.681Z,99.90
2022-08-25T23:04:29.961Z,99.90
2022-08-25T23:06:57.439Z,99.90
2022-08-25T23:09:24.964Z,99.90
2022-08-25T23:11:51.986Z,99.90
2022-08-25T23:14:19.620Z,99.90
2022-08-25T23:16:47.021Z,99.90
2022-08-25T23:19:15.297Z,99.90
2022-08-25T23:21:43.131Z,99.90
2022-08-25T23:24:11.057Z,99.90
2022-08-25T23:26:37.946Z,99.90
2022-08-25T23:29:18.481Z,99.90
2022-08-25T23:31:47.545Z,99.90
2022-08-25T23:34:16.888Z,99.90
2022-08-25T23:36:44.605Z,99.90
2022-08-25T23:39:11.426Z,99.90
2022-08-25T23:41:39.461Z,99.90
2022-08-25T23:44:09.167Z,99.90
2022-08-25T23:46:39.347Z,99.90
2022-08-25T23:49:08.311Z,99.90
2022-08-25T23:51:38.218Z,99.90
2022-08-25T23:54:09.489Z,99.90
2022-08-25T23:56:44.551Z,99.90
2022-08-25T23:59:19.391Z,99.90
